Relevés horaires Chievres (Belgique)


Relevés horaires à Chievres - Samedi 20 Juin 2026
Heure UTC1 Température [°C] Vent [km/h] Hum. [%] Pres.4 [hPa] Visi. [Km] Nébu. [octa] Préc.5 [mm] Cond.
2m. Res. Ros. Dir.2 Vit. Moy. Raf.3
23:00 20.2 20.2 18.9 E 7.4 -- 11.1 92 1022(0.7/3h) 30 -- -- Il y a de la pluie faible et continue à la station au moment de l'observation
22:00 22.0 22.0 18.6 NO 3.7 -- 5.6 81 1022.2(1.3/3h) 70 -- -- Ciel clair
21:00 21.9 21.9 18.0 NNE 3.7 -- 13.0 79 1021.5(1.1/3h) 70 -- -- --
20:00 23.0 23.0 18.4 NNE 7.4 -- 13.0 75 1021.1(1.1/3h) 70 -- -- --
19:00 25.8 25.8 20.4 N 3.7 -- 9.3 72 1020.3(0.6/3h) 70 -- -- --
18:00 27.2 27.2 20.4 N 3.7 -- 9.3 66 1020.1(0.1/3h) >70 -- -- --
17:00 27.6 27.6 20.6 N 3.7 -- 7.4 66 1019.7(0.0/3h) 70 -- -- --
16:00 29.0 29.0 20.2 NNO 1.9 -- 9.3 59 1019.6(0.2/3h) >70 -- -- --
15:00 29.2 29.2 18.1 ONO 3.7 -- 7.4 51 1019.8(0.4/3h) 70 -- -- --
14:00 28.5 28.5 18.5 ONO 3.7 -- 7.4 55 1019.7(0.1/3h) 70 -- -- --
13:00 28.7 28.7 19.1 NNO 1.9 -- 7.4 56 1019.5(0.2/3h) 70 -- -- --
12:00 27.2 27.2 18.0 ONO 3.7 -- 11.1 57 1019.5(0.6/3h) 70 -- -- --
11:00 26.5 26.5 17.4 OSO 3.7 -- 11.1 57 1019.7(1.2/3h) >70 -- -- --
10:00 25.0 25.0 16.9 O 5.6 -- 9.3 61 1019.3(1.7/3h) 70 -- -- --
09:00 23.8 23.8 16.9 NNO 1.9 -- 7.4 65 1019(1.8/3h) 70 -- -- --
08:00 22.6 22.6 17.1 O 3.7 -- 7.4 71 1018.3(1.7/3h) 70 -- -- --
07:00 20.9 20.9 16.3 O 3.7 -- 7.4 75 1017.7(1.3/3h) 70 -- -- --
06:00 19.2 19.2 15.1 OSO 3.7 -- 5.6 77 1017.2(1.4/3h) 45 -- -- --
05:00 17.8 17.8 15.4 NNO 3.7 -- 5.6 86 1016.7(1.3/3h) 17 -- -- --
04:00 17.8 17.8 15.9 NNO 1.9 -- 5.6 89 1016.3(1.2/3h) 35 -- -- --
03:00 18.0 18.0 17.5 NNO 1.9 -- 5.6 97 1015.7(0.4/3h) 8 -- -- --
02:00 18.2 18.2 17.2 OSO 3.7 -- 3.7 94 1015.3(0.2/3h) 18 -- -- --
01:00 17.8 17.8 16.4 NNO 1.9 -- 3.7 92 1015.1(1.0/3h) 35 -- -- --
00:00 19.0 19.0 16.7 NNO 1.9 -- 22.2 87 1015.2(0.4/3h) 16 -- -- NA

1 Coordinated Universal Time. Actuellement il est 23:00 locale et 21:00 UTC.

2 Le vent souffle depuis la direction indiquée vers la direction oposée.

3 Les rafales max. sont disponible 40 min après l'heure du relevé.

4 Pour les stations d'altitude (plus de 600m) le géopotentiel du niveau le plus proche de la pression obligatoire est indiqué.

5 Les stations disposant d'un diffuseur peuvent indiquer "trace". Cela signifie que des précipitations ont touchés le sol mais que la quantité est inférieure à 0.1 mm.

Récapitulatif de la journée
Température [°C] Vent [km/h] Ensoleillement4 [h] Precipitations totale5 [mm] Pression [Hpa]
Min1 Max.2 Moy.3 Max. Min Max.
17.1 29.5 0 22.2 0 h 0 min 0 1015.1 1022.2

1 Température minimale relevée entre 18:00 UTC la veille et 18:00 UTC le jour donné.

2 Température maximale relevée entre 06:00 UTC le jour donné et 06:00 UTC le lendemain.

3 Vent moyen de la journée basé sur les relevés horaires.

4 Ensoleillement en heures relevé entre 06:00 UTC la veille et 06:00 UTC le jour donné.

5 Précipitations totales tombées entre 06:00 UTC la jour donné et 06:00 UTC le lendemain.

Graphiques horaires